createdAt,value
2019-05-13T00:01:29.084Z,6.6
2019-05-13T00:18:04.868Z,6.2
2019-05-13T00:34:40.567Z,6.2
2019-05-13T00:51:16.166Z,5.9
2019-05-13T01:07:53.640Z,5.9
2019-05-13T01:24:27.060Z,5.6
2019-05-13T01:41:04.358Z,5.3
2019-05-13T01:57:37.243Z,5.3
2019-05-13T02:14:13.264Z,5.3
2019-05-13T02:30:47.372Z,5.0
2019-05-13T02:47:22.716Z,5.0
2019-05-13T03:03:57.164Z,5.0
2019-05-13T03:20:33.415Z,5.0
2019-05-13T03:37:08.031Z,4.6
2019-05-13T03:53:43.200Z,4.6
2019-05-13T04:10:16.054Z,4.6
2019-05-13T04:26:53.357Z,5.0
2019-05-13T04:43:25.697Z,5.3
2019-05-13T05:00:04.210Z,5.6
2019-05-13T05:16:40.767Z,5.9
2019-05-13T05:26:34.553Z,6.6
2019-05-13T05:39:51.779Z,7.2
2019-05-13T05:46:32.347Z,7.8
2019-05-13T05:56:28.911Z,8.5
2019-05-13T06:09:47.053Z,9.1
2019-05-13T06:26:25.033Z,9.1
2019-05-13T06:36:24.008Z,9.8
2019-05-13T06:46:23.264Z,10.1
2019-05-13T07:03:02.463Z,10.1
2019-05-13T07:19:41.604Z,10.4
2019-05-13T07:29:42.349Z,10.4
2019-05-13T07:46:21.640Z,10.7
2019-05-13T07:59:39.057Z,11.4
2019-05-13T08:12:59.002Z,11.7
2019-05-13T08:22:59.088Z,12.3
2019-05-13T08:29:41.912Z,12.3
2019-05-13T08:46:21.822Z,12.6
2019-05-13T08:53:03.620Z,13.0
2019-05-13T08:56:21.784Z,13.0
2019-05-13T08:59:42.263Z,12.6
2019-05-13T09:03:06.007Z,13.0
2019-05-13T09:09:41.939Z,13.0
2019-05-13T09:23:02.199Z,13.3
2019-05-13T09:26:22.650Z,13.0
2019-05-13T09:29:42.930Z,13.0
2019-05-13T09:36:22.767Z,13.3
2019-05-13T09:39:43.030Z,13.3
2019-05-13T09:49:43.863Z,13.3
2019-05-13T09:53:04.177Z,13.6
2019-05-13T09:56:24.427Z,13.6
2019-05-13T09:59:44.701Z,13.6
2019-05-13T10:03:05.047Z,13.6
2019-05-13T10:09:48.224Z,13.9
2019-05-13T10:19:46.938Z,14.2
2019-05-13T10:26:27.536Z,13.9
2019-05-13T10:33:08.338Z,14.2
2019-05-13T10:49:52.374Z,14.6
2019-05-13T10:59:52.815Z,14.2
2019-05-13T11:16:34.030Z,14.9
2019-05-13T11:19:54.579Z,14.9
2019-05-13T11:26:36.441Z,15.2
2019-05-13T11:33:17.077Z,15.5
2019-05-13T11:43:18.502Z,15.2
2019-05-13T11:46:42.042Z,15.5
2019-05-13T12:03:23.241Z,15.5
2019-05-13T12:06:47.916Z,15.8
2019-05-13T12:10:03.673Z,15.5
2019-05-13T12:13:24.242Z,15.8
2019-05-13T12:26:46.938Z,15.8
2019-05-13T12:30:07.522Z,15.8
2019-05-13T12:46:54.095Z,15.5
2019-05-13T12:53:32.358Z,16.2
2019-05-13T13:03:34.194Z,15.8
2019-05-13T13:16:56.857Z,16.2
2019-05-13T13:33:44.443Z,16.2
2019-05-13T13:43:53.781Z,16.2
2019-05-13T13:47:03.672Z,15.8
2019-05-13T14:00:38.309Z,16.2
2019-05-13T14:10:28.510Z,16.5
2019-05-13T14:27:12.426Z,16.5
2019-05-13T14:43:55.820Z,16.2
2019-05-13T15:00:41.926Z,16.2
2019-05-13T15:17:23.134Z,16.5
2019-05-13T15:34:06.785Z,16.2
2019-05-13T15:50:51.317Z,16.5
2019-05-13T16:07:34.194Z,16.8
2019-05-13T16:24:18.332Z,17.1
2019-05-13T16:41:02.835Z,17.8
2019-05-13T16:47:56.608Z,18.4
2019-05-13T17:04:32.173Z,18.7
2019-05-13T17:21:16.909Z,18.7
2019-05-13T17:27:59.068Z,17.4
2019-05-13T17:34:43.659Z,16.8
2019-05-13T17:41:22.638Z,16.2
2019-05-13T17:48:03.946Z,15.5
2019-05-13T17:58:05.633Z,14.9
2019-05-13T18:14:47.984Z,14.6
2019-05-13T18:28:24.922Z,13.9
2019-05-13T18:44:51.454Z,13.6
2019-05-13T19:01:32.507Z,13.3
2019-05-13T19:14:53.217Z,12.6
2019-05-13T19:31:33.912Z,12.3
2019-05-13T19:48:14.252Z,12.0
2019-05-13T20:04:54.215Z,11.4
2019-05-13T20:21:34.775Z,11.4
2019-05-13T20:38:13.368Z,10.7
2019-05-13T20:54:52.594Z,10.4
2019-05-13T21:08:11.621Z,10.1
2019-05-13T21:24:51.532Z,9.8
2019-05-13T21:41:28.638Z,9.4
2019-05-13T21:48:07.946Z,9.1
2019-05-13T21:54:47.121Z,9.1
2019-05-13T22:11:24.968Z,8.5
2019-05-13T22:28:02.462Z,8.2
2019-05-13T22:44:41.755Z,8.2
2019-05-13T23:01:16.934Z,7.8
2019-05-13T23:17:53.899Z,7.5
2019-05-13T23:34:31.768Z,7.5
2019-05-13T23:37:51.004Z,7.2
2019-05-13T23:54:26.543Z,7.2
